sensor_id;sensor_type;location;lat;lon;timestamp;P1;durP1;ratioP1;P2;durP2;ratioP2
57461;SDS011;43308;47.306;8.608;2023-12-20T00:01:49;9.07;;;6.95;;
57461;SDS011;43308;47.306;8.608;2023-12-20T00:04:15;8.40;;;6.65;;
57461;SDS011;43308;47.306;8.608;2023-12-20T00:06:41;6.47;;;5.70;;
57461;SDS011;43308;47.306;8.608;2023-12-20T00:09:06;6.38;;;5.60;;
57461;SDS011;43308;47.306;8.608;2023-12-20T00:11:32;9.88;;;6.18;;
57461;SDS011;43308;47.306;8.608;2023-12-20T00:13:58;8.27;;;5.93;;
57461;SDS011;43308;47.306;8.608;2023-12-20T00:16:23;8.88;;;5.88;;
57461;SDS011;43308;47.306;8.608;2023-12-20T00:18:49;9.15;;;6.78;;
57461;SDS011;43308;47.306;8.608;2023-12-20T00:21:15;8.60;;;6.35;;
57461;SDS011;43308;47.306;8.608;2023-12-20T00:23:40;6.88;;;5.78;;
57461;SDS011;43308;47.306;8.608;2023-12-20T00:26:06;8.15;;;6.45;;
57461;SDS011;43308;47.306;8.608;2023-12-20T00:28:32;7.10;;;5.95;;
57461;SDS011;43308;47.306;8.608;2023-12-20T00:30:58;8.95;;;6.93;;
57461;SDS011;43308;47.306;8.608;2023-12-20T00:33:24;9.40;;;6.38;;
57461;SDS011;43308;47.306;8.608;2023-12-20T00:35:50;7.68;;;6.15;;
57461;SDS011;43308;47.306;8.608;2023-12-20T00:38:15;9.35;;;7.05;;
57461;SDS011;43308;47.306;8.608;2023-12-20T00:40:41;7.40;;;6.60;;
57461;SDS011;43308;47.306;8.608;2023-12-20T00:43:07;7.88;;;6.93;;
57461;SDS011;43308;47.306;8.608;2023-12-20T00:45:33;8.10;;;5.93;;
57461;SDS011;43308;47.306;8.608;2023-12-20T00:47:59;8.10;;;5.93;;
57461;SDS011;43308;47.306;8.608;2023-12-20T00:50:25;7.35;;;5.55;;
57461;SDS011;43308;47.306;8.608;2023-12-20T00:52:50;7.50;;;5.18;;
57461;SDS011;43308;47.306;8.608;2023-12-20T00:55:17;5.97;;;5.20;;
57461;SDS011;43308;47.306;8.608;2023-12-20T00:57:43;6.45;;;5.07;;
57461;SDS011;43308;47.306;8.608;2023-12-20T01:00:09;6.47;;;5.35;;
57461;SDS011;43308;47.306;8.608;2023-12-20T01:02:36;5.47;;;4.55;;
57461;SDS011;43308;47.306;8.608;2023-12-20T01:05:01;6.45;;;4.90;;
57461;SDS011;43308;47.306;8.608;2023-12-20T01:07:28;7.03;;;4.55;;
57461;SDS011;43308;47.306;8.608;2023-12-20T01:09:54;6.43;;;4.38;;
57461;SDS011;43308;47.306;8.608;2023-12-20T01:12:19;5.60;;;4.63;;
57461;SDS011;43308;47.306;8.608;2023-12-20T01:14:46;6.75;;;5.00;;
57461;SDS011;43308;47.306;8.608;2023-12-20T01:17:12;5.95;;;4.80;;
57461;SDS011;43308;47.306;8.608;2023-12-20T01:19:37;5.50;;;4.90;;
57461;SDS011;43308;47.306;8.608;2023-12-20T01:22:03;6.07;;;5.07;;
57461;SDS011;43308;47.306;8.608;2023-12-20T01:24:32;6.93;;;5.82;;
57461;SDS011;43308;47.306;8.608;2023-12-20T01:26:58;8.85;;;6.57;;
57461;SDS011;43308;47.306;8.608;2023-12-20T01:29:24;7.90;;;6.25;;
57461;SDS011;43308;47.306;8.608;2023-12-20T01:31:50;10.02;;;6.78;;
57461;SDS011;43308;47.306;8.608;2023-12-20T01:34:15;7.57;;;6.30;;
57461;SDS011;43308;47.306;8.608;2023-12-20T01:36:42;8.25;;;6.47;;
57461;SDS011;43308;47.306;8.608;2023-12-20T01:39:08;7.35;;;5.07;;
57461;SDS011;43308;47.306;8.608;2023-12-20T01:41:34;6.63;;;5.25;;
57461;SDS011;43308;47.306;8.608;2023-12-20T01:44:00;6.78;;;5.22;;
57461;SDS011;43308;47.306;8.608;2023-12-20T01:46:26;7.03;;;6.32;;
57461;SDS011;43308;47.306;8.608;2023-12-20T01:48:53;7.88;;;5.55;;
57461;SDS011;43308;47.306;8.608;2023-12-20T01:51:19;7.28;;;5.80;;
57461;SDS011;43308;47.306;8.608;2023-12-20T01:53:47;7.82;;;5.28;;
57461;SDS011;43308;47.306;8.608;2023-12-20T01:56:16;7.32;;;5.55;;
57461;SDS011;43308;47.306;8.608;2023-12-20T01:58:46;6.45;;;4.60;;
57461;SDS011;43308;47.306;8.608;2023-12-20T02:01:14;7.88;;;5.63;;
57461;SDS011;43308;47.306;8.608;2023-12-20T02:03:41;6.75;;;5.72;;
57461;SDS011;43308;47.306;8.608;2023-12-20T02:06:08;5.90;;;4.38;;
57461;SDS011;43308;47.306;8.608;2023-12-20T02:08:35;6.88;;;5.38;;
57461;SDS011;43308;47.306;8.608;2023-12-20T02:11:02;5.85;;;5.25;;
57461;SDS011;43308;47.306;8.608;2023-12-20T02:13:28;6.22;;;4.38;;
57461;SDS011;43308;47.306;8.608;2023-12-20T02:15:54;6.60;;;5.05;;
57461;SDS011;43308;47.306;8.608;2023-12-20T02:18:20;4.93;;;4.43;;
57461;SDS011;43308;47.306;8.608;2023-12-20T02:20:46;6.05;;;4.70;;
57461;SDS011;43308;47.306;8.608;2023-12-20T02:23:12;4.18;;;3.75;;
57461;SDS011;43308;47.306;8.608;2023-12-20T02:25:38;5.53;;;3.83;;
57461;SDS011;43308;47.306;8.608;2023-12-20T02:28:04;5.05;;;3.60;;
57461;SDS011;43308;47.306;8.608;2023-12-20T02:30:31;4.15;;;3.63;;
57461;SDS011;43308;47.306;8.608;2023-12-20T02:32:57;4.97;;;4.07;;
57461;SDS011;43308;47.306;8.608;2023-12-20T02:35:25;3.80;;;3.30;;
57461;SDS011;43308;47.306;8.608;2023-12-20T02:37:54;4.68;;;3.53;;
57461;SDS011;43308;47.306;8.608;2023-12-20T02:40:19;5.72;;;3.85;;
57461;SDS011;43308;47.306;8.608;2023-12-20T02:42:46;4.43;;;3.67;;
57461;SDS011;43308;47.306;8.608;2023-12-20T02:45:11;5.05;;;4.03;;
57461;SDS011;43308;47.306;8.608;2023-12-20T02:47:37;5.00;;;3.72;;
57461;SDS011;43308;47.306;8.608;2023-12-20T02:50:03;4.55;;;3.78;;
57461;SDS011;43308;47.306;8.608;2023-12-20T02:52:29;5.70;;;3.72;;
57461;SDS011;43308;47.306;8.608;2023-12-20T02:54:54;4.70;;;3.33;;
57461;SDS011;43308;47.306;8.608;2023-12-20T02:57:20;4.35;;;3.67;;
57461;SDS011;43308;47.306;8.608;2023-12-20T02:59:51;6.32;;;5.05;;
57461;SDS011;43308;47.306;8.608;2023-12-20T03:02:21;8.70;;;6.18;;
57461;SDS011;43308;47.306;8.608;2023-12-20T03:04:47;6.13;;;5.30;;
57461;SDS011;43308;47.306;8.608;2023-12-20T03:07:15;7.07;;;4.28;;
57461;SDS011;43308;47.306;8.608;2023-12-20T03:09:40;6.38;;;5.47;;
57461;SDS011;43308;47.306;8.608;2023-12-20T03:12:06;5.25;;;4.75;;
57461;SDS011;43308;47.306;8.608;2023-12-20T03:14:32;5.35;;;4.43;;
57461;SDS011;43308;47.306;8.608;2023-12-20T03:16:58;5.82;;;4.65;;
57461;SDS011;43308;47.306;8.608;2023-12-20T03:19:24;6.22;;;5.25;;
57461;SDS011;43308;47.306;8.608;2023-12-20T03:21:50;7.78;;;5.00;;
57461;SDS011;43308;47.306;8.608;2023-12-20T03:24:18;6.35;;;5.35;;
57461;SDS011;43308;47.306;8.608;2023-12-20T03:26:44;5.47;;;4.93;;
57461;SDS011;43308;47.306;8.608;2023-12-20T03:29:10;5.85;;;4.72;;
57461;SDS011;43308;47.306;8.608;2023-12-20T03:31:35;6.47;;;5.47;;
57461;SDS011;43308;47.306;8.608;2023-12-20T03:34:02;5.55;;;4.45;;
57461;SDS011;43308;47.306;8.608;2023-12-20T03:36:29;5.20;;;4.53;;
57461;SDS011;43308;47.306;8.608;2023-12-20T03:38:54;5.40;;;4.72;;
57461;SDS011;43308;47.306;8.608;2023-12-20T03:41:20;4.95;;;3.92;;
57461;SDS011;43308;47.306;8.608;2023-12-20T03:43:46;5.05;;;3.58;;
57461;SDS011;43308;47.306;8.608;2023-12-20T03:46:12;5.45;;;4.15;;
57461;SDS011;43308;47.306;8.608;2023-12-20T03:48:38;4.95;;;4.00;;
57461;SDS011;43308;47.306;8.608;2023-12-20T03:51:04;4.25;;;3.75;;
57461;SDS011;43308;47.306;8.608;2023-12-20T03:53:34;4.47;;;3.75;;
57461;SDS011;43308;47.306;8.608;2023-12-20T03:56:00;3.97;;;3.58;;
57461;SDS011;43308;47.306;8.608;2023-12-20T03:58:26;4.50;;;3.88;;
57461;SDS011;43308;47.306;8.608;2023-12-20T04:00:53;3.78;;;3.47;;
57461;SDS011;43308;47.306;8.608;2023-12-20T04:03:19;3.45;;;3.15;;
57461;SDS011;43308;47.306;8.608;2023-12-20T04:05:45;4.30;;;3.72;;
57461;SDS011;43308;47.306;8.608;2023-12-20T04:08:11;5.38;;;3.92;;
57461;SDS011;43308;47.306;8.608;2023-12-20T04:10:36;4.22;;;3.83;;
57461;SDS011;43308;47.306;8.608;2023-12-20T04:13:03;6.43;;;4.72;;
57461;SDS011;43308;47.306;8.608;2023-12-20T04:15:29;4.25;;;3.85;;
57461;SDS011;43308;47.306;8.608;2023-12-20T04:17:55;3.92;;;3.35;;
57461;SDS011;43308;47.306;8.608;2023-12-20T04:20:21;3.90;;;3.50;;
57461;SDS011;43308;47.306;8.608;2023-12-20T04:22:48;4.32;;;3.60;;
57461;SDS011;43308;47.306;8.608;2023-12-20T04:25:14;3.75;;;3.45;;
57461;SDS011;43308;47.306;8.608;2023-12-20T04:27:40;5.35;;;4.35;;
57461;SDS011;43308;47.306;8.608;2023-12-20T04:30:05;4.22;;;3.83;;
57461;SDS011;43308;47.306;8.608;2023-12-20T04:32:33;3.90;;;3.50;;
57461;SDS011;43308;47.306;8.608;2023-12-20T04:34:58;4.07;;;3.67;;
57461;SDS011;43308;47.306;8.608;2023-12-20T04:37:27;5.25;;;3.28;;
57461;SDS011;43308;47.306;8.608;2023-12-20T04:39:53;4.30;;;3.80;;
57461;SDS011;43308;47.306;8.608;2023-12-20T04:42:18;3.42;;;3.13;;
57461;SDS011;43308;47.306;8.608;2023-12-20T04:44:44;3.78;;;3.08;;
57461;SDS011;43308;47.306;8.608;2023-12-20T04:47:10;3.50;;;3.20;;
57461;SDS011;43308;47.306;8.608;2023-12-20T04:49:36;3.30;;;2.97;;
57461;SDS011;43308;47.306;8.608;2023-12-20T04:52:01;3.53;;;3.05;;
57461;SDS011;43308;47.306;8.608;2023-12-20T04:54:28;4.03;;;3.20;;
57461;SDS011;43308;47.306;8.608;2023-12-20T04:56:54;3.75;;;3.42;;
57461;SDS011;43308;47.306;8.608;2023-12-20T04:59:20;3.65;;;3.03;;
57461;SDS011;43308;47.306;8.608;2023-12-20T05:01:46;2.97;;;2.67;;
57461;SDS011;43308;47.306;8.608;2023-12-20T05:04:12;4.07;;;2.88;;
57461;SDS011;43308;47.306;8.608;2023-12-20T05:06:37;3.78;;;2.30;;
57461;SDS011;43308;47.306;8.608;2023-12-20T05:09:03;3.72;;;2.67;;
57461;SDS011;43308;47.306;8.608;2023-12-20T05:11:29;2.80;;;2.42;;
57461;SDS011;43308;47.306;8.608;2023-12-20T05:13:55;2.20;;;2.00;;
57461;SDS011;43308;47.306;8.608;2023-12-20T05:16:21;2.00;;;1.63;;
57461;SDS011;43308;47.306;8.608;2023-12-20T05:18:49;2.03;;;1.85;;
57461;SDS011;43308;47.306;8.608;2023-12-20T05:21:15;2.38;;;2.05;;
57461;SDS011;43308;47.306;8.608;2023-12-20T05:23:42;2.58;;;2.35;;
57461;SDS011;43308;47.306;8.608;2023-12-20T05:26:07;2.17;;;1.98;;
57461;SDS011;43308;47.306;8.608;2023-12-20T05:28:33;1.70;;;1.60;;
57461;SDS011;43308;47.306;8.608;2023-12-20T05:30:59;2.65;;;2.22;;
57461;SDS011;43308;47.306;8.608;2023-12-20T05:33:25;1.73;;;1.60;;
57461;SDS011;43308;47.306;8.608;2023-12-20T05:35:50;1.88;;;1.77;;
57461;SDS011;43308;47.306;8.608;2023-12-20T05:38:16;2.28;;;1.92;;
57461;SDS011;43308;47.306;8.608;2023-12-20T05:40:42;1.85;;;1.40;;
57461;SDS011;43308;47.306;8.608;2023-12-20T05:43:07;1.70;;;1.60;;
57461;SDS011;43308;47.306;8.608;2023-12-20T05:45:33;2.78;;;1.67;;
57461;SDS011;43308;47.306;8.608;2023-12-20T05:47:59;2.67;;;1.83;;
57461;SDS011;43308;47.306;8.608;2023-12-20T05:50:25;2.33;;;2.13;;
57461;SDS011;43308;47.306;8.608;2023-12-20T05:52:51;2.10;;;1.90;;
57461;SDS011;43308;47.306;8.608;2023-12-20T05:55:17;2.38;;;2.05;;
57461;SDS011;43308;47.306;8.608;2023-12-20T05:57:42;2.25;;;2.08;;
57461;SDS011;43308;47.306;8.608;2023-12-20T06:00:09;2.08;;;1.88;;
57461;SDS011;43308;47.306;8.608;2023-12-20T06:02:39;2.90;;;2.10;;
57461;SDS011;43308;47.306;8.608;2023-12-20T06:05:05;1.98;;;1.60;;
57461;SDS011;43308;47.306;8.608;2023-12-20T06:07:32;2.53;;;2.13;;
57461;SDS011;43308;47.306;8.608;2023-12-20T06:09:58;3.50;;;2.50;;
57461;SDS011;43308;47.306;8.608;2023-12-20T06:12:24;2.30;;;2.03;;
57461;SDS011;43308;47.306;8.608;2023-12-20T06:14:51;2.90;;;2.13;;
57461;SDS011;43308;47.306;8.608;2023-12-20T06:17:18;3.15;;;2.55;;
57461;SDS011;43308;47.306;8.608;2023-12-20T06:19:43;2.08;;;1.90;;
57461;SDS011;43308;47.306;8.608;2023-12-20T06:22:10;2.70;;;2.25;;
57461;SDS011;43308;47.306;8.608;2023-12-20T06:24:36;2.58;;;2.20;;
57461;SDS011;43308;47.306;8.608;2023-12-20T06:27:01;3.00;;;2.70;;
57461;SDS011;43308;47.306;8.608;2023-12-20T06:29:27;3.92;;;2.42;;
57461;SDS011;43308;47.306;8.608;2023-12-20T06:31:53;3.33;;;2.08;;
57461;SDS011;43308;47.306;8.608;2023-12-20T06:34:19;2.75;;;2.50;;
57461;SDS011;43308;47.306;8.608;2023-12-20T06:36:45;4.53;;;1.98;;
57461;SDS011;43308;47.306;8.608;2023-12-20T06:39:10;2.92;;;2.60;;
57461;SDS011;43308;47.306;8.608;2023-12-20T06:41:38;2.67;;;2.47;;
57461;SDS011;43308;47.306;8.608;2023-12-20T06:44:04;3.67;;;2.55;;
57461;SDS011;43308;47.306;8.608;2023-12-20T06:46:29;3.55;;;2.20;;
57461;SDS011;43308;47.306;8.608;2023-12-20T06:48:56;3.08;;;2.10;;
57461;SDS011;43308;47.306;8.608;2023-12-20T06:51:25;4.47;;;2.78;;
57461;SDS011;43308;47.306;8.608;2023-12-20T06:53:51;2.80;;;2.17;;
57461;SDS011;43308;47.306;8.608;2023-12-20T06:56:18;2.15;;;1.92;;
57461;SDS011;43308;47.306;8.608;2023-12-20T06:58:44;3.28;;;1.80;;
57461;SDS011;43308;47.306;8.608;2023-12-20T07:01:13;2.70;;;2.47;;
57461;SDS011;43308;47.306;8.608;2023-12-20T07:03:40;2.83;;;2.30;;
57461;SDS011;43308;47.306;8.608;2023-12-20T07:06:07;3.20;;;2.83;;
57461;SDS011;43308;47.306;8.608;2023-12-20T07:08:33;2.40;;;2.20;;
57461;SDS011;43308;47.306;8.608;2023-12-20T07:10:58;3.42;;;2.67;;
57461;SDS011;43308;47.306;8.608;2023-12-20T07:13:24;2.90;;;2.58;;
57461;SDS011;43308;47.306;8.608;2023-12-20T07:15:50;3.83;;;2.70;;
57461;SDS011;43308;47.306;8.608;2023-12-20T07:18:16;3.30;;;3.00;;
57461;SDS011;43308;47.306;8.608;2023-12-20T07:20:42;2.28;;;2.08;;
57461;SDS011;43308;47.306;8.608;2023-12-20T07:23:08;2.38;;;1.98;;
57461;SDS011;43308;47.306;8.608;2023-12-20T07:25:34;3.65;;;2.20;;
57461;SDS011;43308;47.306;8.608;2023-12-20T07:28:00;2.20;;;2.00;;
57461;SDS011;43308;47.306;8.608;2023-12-20T07:30:26;2.92;;;2.22;;
57461;SDS011;43308;47.306;8.608;2023-12-20T07:32:51;3.42;;;2.67;;
57461;SDS011;43308;47.306;8.608;2023-12-20T07:35:20;4.00;;;2.60;;
57461;SDS011;43308;47.306;8.608;2023-12-20T07:37:49;3.22;;;2.55;;
57461;SDS011;43308;47.306;8.608;2023-12-20T07:40:14;2.05;;;1.90;;
57461;SDS011;43308;47.306;8.608;2023-12-20T07:42:42;1.98;;;1.77;;
57461;SDS011;43308;47.306;8.608;2023-12-20T07:45:08;2.80;;;2.10;;
57461;SDS011;43308;47.306;8.608;2023-12-20T07:47:36;3.28;;;2.30;;
57461;SDS011;43308;47.306;8.608;2023-12-20T07:50:01;2.40;;;2.20;;
57461;SDS011;43308;47.306;8.608;2023-12-20T07:52:28;2.72;;;2.22;;
57461;SDS011;43308;47.306;8.608;2023-12-20T07:54:54;2.83;;;2.17;;
57461;SDS011;43308;47.306;8.608;2023-12-20T07:57:20;2.13;;;1.92;;
57461;SDS011;43308;47.306;8.608;2023-12-20T07:59:46;2.17;;;1.92;;
57461;SDS011;43308;47.306;8.608;2023-12-20T08:02:12;2.35;;;2.15;;
57461;SDS011;43308;47.306;8.608;2023-12-20T08:04:38;2.40;;;2.03;;
57461;SDS011;43308;47.306;8.608;2023-12-20T08:07:04;2.28;;;1.98;;
57461;SDS011;43308;47.306;8.608;2023-12-20T08:09:30;1.98;;;1.88;;
57461;SDS011;43308;47.306;8.608;2023-12-20T08:11:57;2.17;;;1.98;;
57461;SDS011;43308;47.306;8.608;2023-12-20T08:14:25;2.53;;;1.90;;
57461;SDS011;43308;47.306;8.608;2023-12-20T08:16:50;1.55;;;1.45;;
57461;SDS011;43308;47.306;8.608;2023-12-20T08:19:16;1.95;;;1.70;;
57461;SDS011;43308;47.306;8.608;2023-12-20T08:21:42;1.67;;;1.58;;
57461;SDS011;43308;47.306;8.608;2023-12-20T08:24:08;1.55;;;1.35;;
57461;SDS011;43308;47.306;8.608;2023-12-20T08:26:33;2.25;;;2.05;;
57461;SDS011;43308;47.306;8.608;2023-12-20T08:28:59;2.42;;;2.17;;
57461;SDS011;43308;47.306;8.608;2023-12-20T08:31:25;2.00;;;1.85;;
57461;SDS011;43308;47.306;8.608;2023-12-20T08:33:51;2.70;;;2.47;;
57461;SDS011;43308;47.306;8.608;2023-12-20T08:36:19;2.53;;;1.85;;
57461;SDS011;43308;47.306;8.608;2023-12-20T08:38:46;2.72;;;2.40;;
57461;SDS011;43308;47.306;8.608;2023-12-20T08:41:13;2.88;;;2.10;;
57461;SDS011;43308;47.306;8.608;2023-12-20T08:43:39;2.25;;;2.05;;
57461;SDS011;43308;47.306;8.608;2023-12-20T08:46:08;3.33;;;2.85;;
57461;SDS011;43308;47.306;8.608;2023-12-20T08:48:38;3.20;;;2.90;;
57461;SDS011;43308;47.306;8.608;2023-12-20T08:51:04;3.63;;;2.38;;
57461;SDS011;43308;47.306;8.608;2023-12-20T08:53:32;5.47;;;2.60;;
57461;SDS011;43308;47.306;8.608;2023-12-20T08:55:58;3.42;;;2.70;;
57461;SDS011;43308;47.306;8.608;2023-12-20T08:58:26;3.50;;;2.78;;
57461;SDS011;43308;47.306;8.608;2023-12-20T09:00:53;3.65;;;2.58;;
57461;SDS011;43308;47.306;8.608;2023-12-20T09:03:19;3.20;;;2.88;;
57461;SDS011;43308;47.306;8.608;2023-12-20T09:05:44;2.63;;;2.42;;
57461;SDS011;43308;47.306;8.608;2023-12-20T09:08:10;1.92;;;1.83;;
57461;SDS011;43308;47.306;8.608;2023-12-20T09:10:36;2.45;;;2.08;;
57461;SDS011;43308;47.306;8.608;2023-12-20T09:13:02;2.72;;;2.53;;
57461;SDS011;43308;47.306;8.608;2023-12-20T09:15:29;2.65;;;1.95;;
57461;SDS011;43308;47.306;8.608;2023-12-20T09:17:56;1.75;;;1.65;;
57461;SDS011;43308;47.306;8.608;2023-12-20T09:20:22;2.00;;;1.90;;
57461;SDS011;43308;47.306;8.608;2023-12-20T09:22:49;2.15;;;1.98;;
57461;SDS011;43308;47.306;8.608;2023-12-20T09:25:15;3.20;;;1.77;;
57461;SDS011;43308;47.306;8.608;2023-12-20T09:27:43;2.88;;;2.60;;
57461;SDS011;43308;47.306;8.608;2023-12-20T09:30:08;5.45;;;2.30;;
57461;SDS011;43308;47.306;8.608;2023-12-20T09:32:35;1.85;;;1.67;;
57461;SDS011;43308;47.306;8.608;2023-12-20T09:35:01;2.47;;;1.90;;
57461;SDS011;43308;47.306;8.608;2023-12-20T09:37:28;5.28;;;2.45;;
57461;SDS011;43308;47.306;8.608;2023-12-20T09:39:54;2.08;;;1.83;;
57461;SDS011;43308;47.306;8.608;2023-12-20T09:42:34;2.88;;;1.83;;
57461;SDS011;43308;47.306;8.608;2023-12-20T09:45:03;1.98;;;1.80;;
57461;SDS011;43308;47.306;8.608;2023-12-20T09:47:34;2.95;;;2.28;;
57461;SDS011;43308;47.306;8.608;2023-12-20T09:50:01;3.03;;;2.45;;
57461;SDS011;43308;47.306;8.608;2023-12-20T09:52:27;2.50;;;2.30;;
57461;SDS011;43308;47.306;8.608;2023-12-20T09:54:54;2.30;;;2.10;;
57461;SDS011;43308;47.306;8.608;2023-12-20T09:57:23;2.70;;;2.50;;
57461;SDS011;43308;47.306;8.608;2023-12-20T09:59:49;2.53;;;2.33;;
57461;SDS011;43308;47.306;8.608;2023-12-20T10:02:16;2.85;;;2.30;;
57461;SDS011;43308;47.306;8.608;2023-12-20T10:04:46;2.60;;;2.35;;
57461;SDS011;43308;47.306;8.608;2023-12-20T10:07:15;2.75;;;1.98;;
57461;SDS011;43308;47.306;8.608;2023-12-20T10:09:41;2.47;;;2.28;;
57461;SDS011;43308;47.306;8.608;2023-12-20T10:12:07;2.20;;;2.00;;
57461;SDS011;43308;47.306;8.608;2023-12-20T10:14:33;2.17;;;1.98;;
57461;SDS011;43308;47.306;8.608;2023-12-20T10:17:05;3.83;;;3.53;;
57461;SDS011;43308;47.306;8.608;2023-12-20T10:19:32;3.35;;;2.17;;
57461;SDS011;43308;47.306;8.608;2023-12-20T10:22:03;4.00;;;2.53;;
57461;SDS011;43308;47.306;8.608;2023-12-20T10:24:30;2.20;;;2.00;;
57461;SDS011;43308;47.306;8.608;2023-12-20T10:27:03;2.53;;;2.33;;
57461;SDS011;43308;47.306;8.608;2023-12-20T10:29:33;2.55;;;2.35;;
57461;SDS011;43308;47.306;8.608;2023-12-20T10:31:59;2.13;;;1.92;;
57461;SDS011;43308;47.306;8.608;2023-12-20T10:34:25;2.05;;;1.90;;
57461;SDS011;43308;47.306;8.608;2023-12-20T10:36:51;2.63;;;2.00;;
57461;SDS011;43308;47.306;8.608;2023-12-20T10:39:17;2.15;;;1.40;;
57461;SDS011;43308;47.306;8.608;2023-12-20T10:41:46;1.52;;;1.40;;
57461;SDS011;43308;47.306;8.608;2023-12-20T10:44:13;2.00;;;1.60;;
57461;SDS011;43308;47.306;8.608;2023-12-20T10:46:40;1.50;;;1.40;;
57461;SDS011;43308;47.306;8.608;2023-12-20T10:49:08;1.50;;;1.02;;
57461;SDS011;43308;47.306;8.608;2023-12-20T10:51:35;1.70;;;1.00;;
57461;SDS011;43308;47.306;8.608;2023-12-20T10:54:02;1.45;;;1.33;;
57461;SDS011;43308;47.306;8.608;2023-12-20T10:56:30;1.55;;;1.20;;
57461;SDS011;43308;47.306;8.608;2023-12-20T10:58:58;2.88;;;1.10;;
57461;SDS011;43308;47.306;8.608;2023-12-20T11:01:28;1.45;;;1.35;;
57461;SDS011;43308;47.306;8.608;2023-12-20T11:03:55;1.70;;;1.42;;
57461;SDS011;43308;47.306;8.608;2023-12-20T11:09:04;2.38;;;1.63;;
57461;SDS011;43308;47.306;8.608;2023-12-20T11:17:12;2.75;;;1.58;;
57461;SDS011;43308;47.306;8.608;2023-12-20T11:22:27;1.95;;;1.30;;
57461;SDS011;43308;47.306;8.608;2023-12-20T11:27:33;2.40;;;1.60;;
57461;SDS011;43308;47.306;8.608;2023-12-20T11:29:59;2.05;;;1.52;;
57461;SDS011;43308;47.306;8.608;2023-12-20T11:32:28;2.20;;;2.00;;
57461;SDS011;43308;47.306;8.608;2023-12-20T11:34:55;1.65;;;1.50;;
57461;SDS011;43308;47.306;8.608;2023-12-20T11:37:21;1.45;;;1.35;;
57461;SDS011;43308;47.306;8.608;2023-12-20T11:39:55;2.00;;;1.73;;
57461;SDS011;43308;47.306;8.608;2023-12-20T11:42:24;1.63;;;1.52;;
57461;SDS011;43308;47.306;8.608;2023-12-20T11:44:51;2.45;;;2.10;;
57461;SDS011;43308;47.306;8.608;2023-12-20T11:47:21;2.05;;;1.80;;
57461;SDS011;43308;47.306;8.608;2023-12-20T11:49:47;2.63;;;2.35;;
57461;SDS011;43308;47.306;8.608;2023-12-20T11:52:14;1.77;;;1.63;;
57461;SDS011;43308;47.306;8.608;2023-12-20T11:54:39;3.17;;;2.55;;
57461;SDS011;43308;47.306;8.608;2023-12-20T11:57:05;3.05;;;1.98;;
57461;SDS011;43308;47.306;8.608;2023-12-20T11:59:32;2.58;;;2.35;;
57461;SDS011;43308;47.306;8.608;2023-12-20T12:01:58;2.83;;;1.85;;
57461;SDS011;43308;47.306;8.608;2023-12-20T12:04:29;2.90;;;2.15;;
57461;SDS011;43308;47.306;8.608;2023-12-20T12:06:54;1.65;;;1.55;;
57461;SDS011;43308;47.306;8.608;2023-12-20T12:09:20;1.83;;;1.73;;
57461;SDS011;43308;47.306;8.608;2023-12-20T12:11:46;3.53;;;2.17;;
57461;SDS011;43308;47.306;8.608;2023-12-20T12:14:13;1.60;;;1.50;;
57461;SDS011;43308;47.306;8.608;2023-12-20T12:16:41;4.47;;;2.20;;
57461;SDS011;43308;47.306;8.608;2023-12-20T12:19:07;1.88;;;1.67;;
57461;SDS011;43308;47.306;8.608;2023-12-20T12:21:45;2.25;;;1.58;;
57461;SDS011;43308;47.306;8.608;2023-12-20T12:24:11;2.75;;;1.63;;
57461;SDS011;43308;47.306;8.608;2023-12-20T12:26:37;2.53;;;2.08;;
57461;SDS011;43308;47.306;8.608;2023-12-20T12:29:03;2.17;;;1.50;;
57461;SDS011;43308;47.306;8.608;2023-12-20T12:31:29;2.08;;;1.88;;
57461;SDS011;43308;47.306;8.608;2023-12-20T12:33:55;0.80;;;0.80;;
57461;SDS011;43308;47.306;8.608;2023-12-20T12:36:21;2.38;;;1.10;;
57461;SDS011;43308;47.306;8.608;2023-12-20T12:38:48;2.45;;;2.10;;
57461;SDS011;43308;47.306;8.608;2023-12-20T12:41:14;1.52;;;1.33;;
57461;SDS011;43308;47.306;8.608;2023-12-20T12:43:40;1.60;;;1.50;;
57461;SDS011;43308;47.306;8.608;2023-12-20T12:46:06;1.35;;;1.25;;
57461;SDS011;43308;47.306;8.608;2023-12-20T12:48:32;0.93;;;0.90;;
57461;SDS011;43308;47.306;8.608;2023-12-20T12:50:59;1.52;;;1.20;;
57461;SDS011;43308;47.306;8.608;2023-12-20T12:53:25;1.75;;;1.17;;
57461;SDS011;43308;47.306;8.608;2023-12-20T12:55:52;1.40;;;0.93;;
57461;SDS011;43308;47.306;8.608;2023-12-20T12:58:19;3.97;;;0.70;;
57461;SDS011;43308;47.306;8.608;2023-12-20T13:00:47;1.27;;;0.80;;
57461;SDS011;43308;47.306;8.608;2023-12-20T13:03:13;1.35;;;0.60;;
57461;SDS011;43308;47.306;8.608;2023-12-20T13:05:39;1.10;;;0.50;;
57461;SDS011;43308;47.306;8.608;2023-12-20T13:08:05;1.05;;;0.57;;
57461;SDS011;43308;47.306;8.608;2023-12-20T13:10:31;1.27;;;0.43;;
57461;SDS011;43308;47.306;8.608;2023-12-20T13:12:57;1.52;;;0.55;;
57461;SDS011;43308;47.306;8.608;2023-12-20T13:15:23;1.50;;;0.70;;
57461;SDS011;43308;47.306;8.608;2023-12-20T13:17:49;1.33;;;0.68;;
57461;SDS011;43308;47.306;8.608;2023-12-20T13:20:15;1.40;;;0.70;;
57461;SDS011;43308;47.306;8.608;2023-12-20T13:22:41;1.08;;;0.65;;
57461;SDS011;43308;47.306;8.608;2023-12-20T13:25:07;1.38;;;0.50;;
57461;SDS011;43308;47.306;8.608;2023-12-20T13:27:33;1.38;;;0.68;;
57461;SDS011;43308;47.306;8.608;2023-12-20T13:29:59;0.70;;;0.60;;
57461;SDS011;43308;47.306;8.608;2023-12-20T13:32:24;0.90;;;0.40;;
57461;SDS011;43308;47.306;8.608;2023-12-20T13:34:50;0.60;;;0.55;;
57461;SDS011;43308;47.306;8.608;2023-12-20T13:37:17;0.70;;;0.65;;
57461;SDS011;43308;47.306;8.608;2023-12-20T13:39:43;1.45;;;0.70;;
57461;SDS011;43308;47.306;8.608;2023-12-20T13:42:09;1.75;;;1.20;;
57461;SDS011;43308;47.306;8.608;2023-12-20T13:44:35;2.70;;;0.88;;
57461;SDS011;43308;47.306;8.608;2023-12-20T13:47:01;0.75;;;0.70;;
57461;SDS011;43308;47.306;8.608;2023-12-20T13:49:27;2.53;;;0.98;;
57461;SDS011;43308;47.306;8.608;2023-12-20T13:51:53;1.10;;;0.80;;
57461;SDS011;43308;47.306;8.608;2023-12-20T13:54:20;1.70;;;1.17;;
57461;SDS011;43308;47.306;8.608;2023-12-20T13:56:47;0.85;;;0.50;;
57461;SDS011;43308;47.306;8.608;2023-12-20T13:59:12;0.75;;;0.73;;
57461;SDS011;43308;47.306;8.608;2023-12-20T14:01:39;2.55;;;1.17;;
57461;SDS011;43308;47.306;8.608;2023-12-20T14:04:04;1.65;;;0.68;;
57461;SDS011;43308;47.306;8.608;2023-12-20T14:06:30;2.67;;;1.13;;
57461;SDS011;43308;47.306;8.608;2023-12-20T14:08:56;3.13;;;0.80;;
57461;SDS011;43308;47.306;8.608;2023-12-20T14:11:22;2.88;;;0.70;;
57461;SDS011;43308;47.306;8.608;2023-12-20T14:13:47;1.75;;;0.90;;
57461;SDS011;43308;47.306;8.608;2023-12-20T14:16:13;1.17;;;0.95;;
57461;SDS011;43308;47.306;8.608;2023-12-20T14:18:39;2.38;;;0.80;;
57461;SDS011;43308;47.306;8.608;2023-12-20T14:21:05;2.22;;;0.52;;
57461;SDS011;43308;47.306;8.608;2023-12-20T14:23:32;4.65;;;0.98;;
57461;SDS011;43308;47.306;8.608;2023-12-20T14:25:59;1.02;;;0.50;;
57461;SDS011;43308;47.306;8.608;2023-12-20T14:28:25;1.15;;;0.55;;
57461;SDS011;43308;47.306;8.608;2023-12-20T14:30:51;2.50;;;1.02;;
57461;SDS011;43308;47.306;8.608;2023-12-20T14:33:16;2.30;;;0.60;;
57461;SDS011;43308;47.306;8.608;2023-12-20T14:35:43;1.83;;;0.60;;
57461;SDS011;43308;47.306;8.608;2023-12-20T14:38:09;3.72;;;0.70;;
57461;SDS011;43308;47.306;8.608;2023-12-20T14:40:35;3.15;;;0.90;;
57461;SDS011;43308;47.306;8.608;2023-12-20T14:43:01;1.42;;;1.00;;
57461;SDS011;43308;47.306;8.608;2023-12-20T14:45:29;2.78;;;0.77;;
57461;SDS011;43308;47.306;8.608;2023-12-20T14:47:55;2.40;;;0.70;;
57461;SDS011;43308;47.306;8.608;2023-12-20T14:50:21;2.33;;;0.70;;
57461;SDS011;43308;47.306;8.608;2023-12-20T14:52:47;1.20;;;0.60;;
57461;SDS011;43308;47.306;8.608;2023-12-20T14:55:12;2.97;;;0.80;;
57461;SDS011;43308;47.306;8.608;2023-12-20T14:57:38;2.88;;;0.60;;